sensor_id;sensor_type;location;lat;lon;timestamp;pressure;altitude;pressure_sealevel;temperature;humidity
29985;BME280;17387;42.690;23.328;2022-07-03T00:02:05;47524.66;;;-144.02;75.44
29985;BME280;17387;42.690;23.328;2022-07-03T00:04:31;47479.97;;;-144.02;75.30
29985;BME280;17387;42.690;23.328;2022-07-03T00:06:56;47437.31;;;-144.02;75.27
29985;BME280;17387;42.690;23.328;2022-07-03T00:09:22;47417.00;;;-144.02;75.74
29985;BME280;17387;42.690;23.328;2022-07-03T00:11:47;47412.94;;;-144.02;76.13
29985;BME280;17387;42.690;23.328;2022-07-03T00:14:13;47575.44;;;-144.02;76.18
29985;BME280;17387;42.690;23.328;2022-07-03T00:16:38;47473.88;;;-144.02;76.40
29985;BME280;17387;42.690;23.328;2022-07-03T00:19:04;47437.31;;;-144.02;76.62
29985;BME280;17387;42.690;23.328;2022-07-03T00:22:03;47471.84;;;-144.02;76.54
29985;BME280;17387;42.690;23.328;2022-07-03T00:27:08;47404.81;;;-144.02;76.88
29985;BME280;17387;42.690;23.328;2022-07-03T00:29:38;47461.69;;;-144.02;77.86
29985;BME280;17387;42.690;23.328;2022-07-03T00:32:07;47459.66;;;-144.02;77.65
29985;BME280;17387;42.690;23.328;2022-07-03T00:34:33;47449.50;;;-144.02;77.83
29985;BME280;17387;42.690;23.328;2022-07-03T00:37:00;47455.59;;;-144.02;77.71
29985;BME280;17387;42.690;23.328;2022-07-03T00:39:27;47449.50;;;-144.02;78.08
29985;BME280;17387;42.690;23.328;2022-07-03T00:42:03;47479.97;;;-144.02;78.12
29985;BME280;17387;42.690;23.328;2022-07-03T00:44:29;47469.81;;;-144.02;77.86
29985;BME280;17387;42.690;23.328;2022-07-03T00:46:56;47443.41;;;-144.02;78.13
29985;BME280;17387;42.690;23.328;2022-07-03T00:49:24;47427.16;;;-144.02;75.49
29985;BME280;17387;42.690;23.328;2022-07-03T00:51:53;47447.47;;;-144.02;76.14
29985;BME280;17387;42.690;23.328;2022-07-03T00:54:21;47453.56;;;-144.02;78.28
29985;BME280;17387;42.690;23.328;2022-07-03T00:56:52;47465.75;;;-144.02;80.94
29985;BME280;17387;42.690;23.328;2022-07-03T00:59:19;47473.88;;;-144.02;79.43
29985;BME280;17387;42.690;23.328;2022-07-03T01:01:46;47447.47;;;-144.02;81.49
29985;BME280;17387;42.690;23.328;2022-07-03T01:04:35;47473.88;;;-144.02;83.39
29985;BME280;17387;42.690;23.328;2022-07-03T01:07:05;47453.56;;;-144.02;84.20
29985;BME280;17387;42.690;23.328;2022-07-03T01:15:29;47419.03;;;-144.02;80.73
29985;BME280;17387;42.690;23.328;2022-07-03T01:20:52;47447.47;;;-144.02;81.55
29985;BME280;17387;42.690;23.328;2022-07-03T01:23:42;47461.69;;;-144.02;82.08
29985;BME280;17387;42.690;23.328;2022-07-03T01:26:14;47471.84;;;-144.02;82.81
29985;BME280;17387;42.690;23.328;2022-07-03T01:28:44;47469.81;;;-144.02;81.78
29985;BME280;17387;42.690;23.328;2022-07-03T01:31:10;47459.66;;;-144.02;82.10
29985;BME280;17387;42.690;23.328;2022-07-03T01:33:39;47465.75;;;-144.02;80.63
29985;BME280;17387;42.690;23.328;2022-07-03T01:36:07;47463.72;;;-144.02;81.31
29985;BME280;17387;42.690;23.328;2022-07-03T01:38:38;47502.31;;;-144.02;81.91
29985;BME280;17387;42.690;23.328;2022-07-03T01:41:07;47421.06;;;-144.02;82.83
29985;BME280;17387;42.690;23.328;2022-07-03T01:43:36;47484.03;;;-144.02;83.03
29985;BME280;17387;42.690;23.328;2022-07-03T01:46:03;47473.88;;;-144.02;84.81
29985;BME280;17387;42.690;23.328;2022-07-03T01:48:30;47469.81;;;-144.02;85.16
29985;BME280;17387;42.690;23.328;2022-07-03T01:50:56;47498.25;;;-144.02;86.07
29985;BME280;17387;42.690;23.328;2022-07-03T01:53:30;47437.31;;;-144.02;85.62
29985;BME280;17387;42.690;23.328;2022-07-03T01:55:57;47471.84;;;-144.02;85.50
29985;BME280;17387;42.690;23.328;2022-07-03T01:58:23;47482.00;;;-144.02;86.54
29985;BME280;17387;42.690;23.328;2022-07-03T02:03:39;47467.78;;;-144.02;85.97
29985;BME280;17387;42.690;23.328;2022-07-03T02:09:02;47490.13;;;-144.02;87.09
29985;BME280;17387;42.690;23.328;2022-07-03T02:11:33;47463.72;;;-144.02;87.78
29985;BME280;17387;42.690;23.328;2022-07-03T02:16:42;47471.84;;;-144.02;89.86
29985;BME280;17387;42.690;23.328;2022-07-03T02:19:11;47465.75;;;-144.02;90.61
29985;BME280;17387;42.690;23.328;2022-07-03T02:21:40;47439.34;;;-144.02;91.14
29985;BME280;17387;42.690;23.328;2022-07-03T02:24:17;47461.69;;;-144.02;89.50
29985;BME280;17387;42.690;23.328;2022-07-03T02:26:53;47496.22;;;-144.02;88.84
29985;BME280;17387;42.690;23.328;2022-07-03T02:29:20;47479.97;;;-144.02;89.38
29985;BME280;17387;42.690;23.328;2022-07-03T02:31:59;47475.91;;;-144.02;89.93
29985;BME280;17387;42.690;23.328;2022-07-03T02:34:25;47492.16;;;-144.02;89.96
29985;BME280;17387;42.690;23.328;2022-07-03T02:36:58;47490.13;;;-144.02;86.38
29985;BME280;17387;42.690;23.328;2022-07-03T02:39:34;47477.94;;;-144.02;86.71
29985;BME280;17387;42.690;23.328;2022-07-03T02:42:02;47449.50;;;-144.02;87.50
29985;BME280;17387;42.690;23.328;2022-07-03T02:46:59;47447.47;;;-144.02;88.20
29985;BME280;17387;42.690;23.328;2022-07-03T03:01:34;47479.97;;;-144.02;82.65
29985;BME280;17387;42.690;23.328;2022-07-03T03:04:21;47461.69;;;-144.02;84.34
29985;BME280;17387;42.690;23.328;2022-07-03T03:07:01;47473.88;;;-144.02;84.86
29985;BME280;17387;42.690;23.328;2022-07-03T03:09:32;47477.94;;;-144.02;84.48
29985;BME280;17387;42.690;23.328;2022-07-03T03:12:01;47496.22;;;-144.02;84.49
29985;BME280;17387;42.690;23.328;2022-07-03T03:14:33;47463.72;;;-144.02;84.11
29985;BME280;17387;42.690;23.328;2022-07-03T03:17:05;47465.75;;;-144.02;82.92
29985;BME280;17387;42.690;23.328;2022-07-03T03:19:36;47453.56;;;-144.02;81.11
29985;BME280;17387;42.690;23.328;2022-07-03T03:22:28;47465.75;;;-144.02;81.07
29985;BME280;17387;42.690;23.328;2022-07-03T03:25:01;47449.50;;;-144.02;80.53
29985;BME280;17387;42.690;23.328;2022-07-03T03:27:28;47490.13;;;-144.02;79.39
29985;BME280;17387;42.690;23.328;2022-07-03T03:29:54;47473.88;;;-144.02;80.41
29985;BME280;17387;42.690;23.328;2022-07-03T03:32:20;47431.22;;;-144.02;80.92
29985;BME280;17387;42.690;23.328;2022-07-03T03:34:47;47453.56;;;-144.02;80.58
29985;BME280;17387;42.690;23.328;2022-07-03T03:37:12;47451.53;;;-144.02;80.16
29985;BME280;17387;42.690;23.328;2022-07-03T03:39:38;47443.41;;;-144.02;80.65
29985;BME280;17387;42.690;23.328;2022-07-03T03:42:04;47437.31;;;-144.02;81.04
29985;BME280;17387;42.690;23.328;2022-07-03T03:44:30;47457.63;;;-144.02;81.39
29985;BME280;17387;42.690;23.328;2022-07-03T03:46:55;47484.03;;;-144.02;81.49
29985;BME280;17387;42.690;23.328;2022-07-03T03:49:21;47461.69;;;-144.02;81.31
29985;BME280;17387;42.690;23.328;2022-07-03T03:51:47;47465.75;;;-144.02;80.39
29985;BME280;17387;42.690;23.328;2022-07-03T03:54:12;47453.56;;;-144.02;78.70
29985;BME280;17387;42.690;23.328;2022-07-03T03:56:38;47473.88;;;-144.02;78.46
29985;BME280;17387;42.690;23.328;2022-07-03T03:59:03;47417.00;;;-144.02;78.40
29985;BME280;17387;42.690;23.328;2022-07-03T04:01:29;47447.47;;;-144.02;78.11
29985;BME280;17387;42.690;23.328;2022-07-03T04:03:55;47443.41;;;-144.02;78.07
29985;BME280;17387;42.690;23.328;2022-07-03T04:06:20;47482.00;;;-144.02;77.91
29985;BME280;17387;42.690;23.328;2022-07-03T04:08:46;47467.78;;;-144.02;76.51
29985;BME280;17387;42.690;23.328;2022-07-03T04:11:11;47526.69;;;-144.02;75.57
29985;BME280;17387;42.690;23.328;2022-07-03T04:13:36;47473.88;;;-144.02;75.18
29985;BME280;17387;42.690;23.328;2022-07-03T04:16:02;47437.31;;;-144.02;76.14
29985;BME280;17387;42.690;23.328;2022-07-03T04:18:27;47469.81;;;-144.02;76.05
29985;BME280;17387;42.690;23.328;2022-07-03T04:20:53;47455.59;;;-144.02;76.45
29985;BME280;17387;42.690;23.328;2022-07-03T04:23:19;47453.56;;;-144.02;76.24
29985;BME280;17387;42.690;23.328;2022-07-03T04:25:44;47439.34;;;-144.02;75.33
29985;BME280;17387;42.690;23.328;2022-07-03T04:28:10;47465.75;;;-144.02;75.08
29985;BME280;17387;42.690;23.328;2022-07-03T04:30:36;47482.00;;;-144.02;74.63
29985;BME280;17387;42.690;23.328;2022-07-03T04:33:01;47455.59;;;-144.02;75.74
29985;BME280;17387;42.690;23.328;2022-07-03T04:35:27;47449.50;;;-144.02;75.94
29985;BME280;17387;42.690;23.328;2022-07-03T04:37:52;47443.41;;;-144.02;76.54
29985;BME280;17387;42.690;23.328;2022-07-03T04:40:18;47469.81;;;-144.02;76.58
29985;BME280;17387;42.690;23.328;2022-07-03T04:42:43;47469.81;;;-144.02;76.56
29985;BME280;17387;42.690;23.328;2022-07-03T04:45:09;47473.88;;;-144.02;75.67
29985;BME280;17387;42.690;23.328;2022-07-03T04:47:34;47486.06;;;-144.02;76.36
29985;BME280;17387;42.690;23.328;2022-07-03T04:50:00;47435.28;;;-144.02;74.32
29985;BME280;17387;42.690;23.328;2022-07-03T04:52:25;47457.63;;;-144.02;74.50
29985;BME280;17387;42.690;23.328;2022-07-03T04:54:51;47477.94;;;-144.02;74.77
29985;BME280;17387;42.690;23.328;2022-07-03T04:57:16;47433.25;;;-144.02;74.89
29985;BME280;17387;42.690;23.328;2022-07-03T04:59:42;47473.88;;;-144.02;74.88
29985;BME280;17387;42.690;23.328;2022-07-03T05:02:07;47459.66;;;-144.02;75.06
29985;BME280;17387;42.690;23.328;2022-07-03T05:04:33;47441.38;;;-144.02;73.96
29985;BME280;17387;42.690;23.328;2022-07-03T05:06:58;47429.19;;;-144.02;73.52
29985;BME280;17387;42.690;23.328;2022-07-03T05:09:25;47461.69;;;-144.02;73.09
29985;BME280;17387;42.690;23.328;2022-07-03T05:11:50;47473.88;;;-144.02;73.40
29985;BME280;17387;42.690;23.328;2022-07-03T05:14:15;47388.56;;;-144.02;73.38
29985;BME280;17387;42.690;23.328;2022-07-03T05:16:41;47457.63;;;-144.02;72.56
29985;BME280;17387;42.690;23.328;2022-07-03T05:19:06;47455.59;;;-144.02;71.75
29985;BME280;17387;42.690;23.328;2022-07-03T05:21:32;47453.56;;;-144.02;71.08
29985;BME280;17387;42.690;23.328;2022-07-03T05:23:57;47437.31;;;-144.02;71.15
29985;BME280;17387;42.690;23.328;2022-07-03T05:26:23;47433.25;;;-144.02;70.54
29985;BME280;17387;42.690;23.328;2022-07-03T05:28:49;47400.75;;;-144.02;70.83
29985;BME280;17387;42.690;23.328;2022-07-03T05:31:15;47421.06;;;-144.02;70.49
29985;BME280;17387;42.690;23.328;2022-07-03T05:33:40;47451.53;;;-144.02;70.37
29985;BME280;17387;42.690;23.328;2022-07-03T05:36:06;47431.22;;;-144.02;71.10
29985;BME280;17387;42.690;23.328;2022-07-03T05:38:32;47419.03;;;-144.02;70.06
29985;BME280;17387;42.690;23.328;2022-07-03T05:41:16;47433.25;;;-144.02;69.45
29985;BME280;17387;42.690;23.328;2022-07-03T05:43:42;47475.91;;;-144.02;70.83
29985;BME280;17387;42.690;23.328;2022-07-03T05:46:07;47455.59;;;-144.02;71.23
29985;BME280;17387;42.690;23.328;2022-07-03T05:48:36;47449.50;;;-144.02;71.64
29985;BME280;17387;42.690;23.328;2022-07-03T05:51:02;47449.50;;;-144.02;70.70
29985;BME280;17387;42.690;23.328;2022-07-03T05:53:28;47429.19;;;-144.02;70.78
29985;BME280;17387;42.690;23.328;2022-07-03T05:55:54;47451.53;;;-144.02;69.49
29985;BME280;17387;42.690;23.328;2022-07-03T05:58:19;47457.63;;;-144.02;69.60
29985;BME280;17387;42.690;23.328;2022-07-03T06:00:45;47437.31;;;-144.02;69.30
29985;BME280;17387;42.690;23.328;2022-07-03T06:03:10;47435.28;;;-144.02;68.63
29985;BME280;17387;42.690;23.328;2022-07-03T06:05:36;47408.88;;;-144.02;67.57
29985;BME280;17387;42.690;23.328;2022-07-03T06:08:01;47437.31;;;-144.02;66.47
29985;BME280;17387;42.690;23.328;2022-07-03T06:10:28;47427.16;;;-144.02;67.03
29985;BME280;17387;42.690;23.328;2022-07-03T06:12:54;47451.53;;;-144.02;66.12
29985;BME280;17387;42.690;23.328;2022-07-03T06:15:20;47408.88;;;-144.02;65.66
29985;BME280;17387;42.690;23.328;2022-07-03T06:17:45;47429.19;;;-144.02;64.54
29985;BME280;17387;42.690;23.328;2022-07-03T06:20:11;47400.75;;;-144.02;63.71
29985;BME280;17387;42.690;23.328;2022-07-03T06:22:37;47425.13;;;-144.02;64.29
29985;BME280;17387;42.690;23.328;2022-07-03T06:25:04;47398.72;;;-144.02;63.30
29985;BME280;17387;42.690;23.328;2022-07-03T06:27:29;47358.09;;;-144.02;63.79
29985;BME280;17387;42.690;23.328;2022-07-03T06:29:55;47504.34;;;-144.02;63.46
29985;BME280;17387;42.690;23.328;2022-07-03T06:32:20;47429.19;;;-144.02;62.78
29985;BME280;17387;42.690;23.328;2022-07-03T06:34:46;47392.63;;;-144.02;62.14
29985;BME280;17387;42.690;23.328;2022-07-03T06:37:12;47410.91;;;-144.02;61.91
29985;BME280;17387;42.690;23.328;2022-07-03T06:39:38;47360.13;;;-144.02;61.91
29985;BME280;17387;42.690;23.328;2022-07-03T06:42:04;47394.66;;;-144.02;61.17
29985;BME280;17387;42.690;23.328;2022-07-03T06:44:29;47380.44;;;-144.02;60.27
29985;BME280;17387;42.690;23.328;2022-07-03T06:46:55;47404.81;;;-144.02;60.90
29985;BME280;17387;42.690;23.328;2022-07-03T06:49:21;47364.19;;;-144.02;60.81
29985;BME280;17387;42.690;23.328;2022-07-03T06:51:46;47392.63;;;-144.02;60.09
29985;BME280;17387;42.690;23.328;2022-07-03T06:54:12;47341.84;;;-144.02;60.28
29985;BME280;17387;42.690;23.328;2022-07-03T06:56:37;47423.09;;;-144.02;59.64
29985;BME280;17387;42.690;23.328;2022-07-03T06:59:03;47360.13;;;-144.02;60.84
29985;BME280;17387;42.690;23.328;2022-07-03T07:01:29;47419.03;;;-144.02;60.40
29985;BME280;17387;42.690;23.328;2022-07-03T07:03:55;47386.53;;;-144.02;59.81
29985;BME280;17387;42.690;23.328;2022-07-03T07:06:20;47384.50;;;-144.02;59.92
29985;BME280;17387;42.690;23.328;2022-07-03T07:08:46;47376.38;;;-144.02;58.67
29985;BME280;17387;42.690;23.328;2022-07-03T07:11:12;47376.38;;;-144.02;57.06
29985;BME280;17387;42.690;23.328;2022-07-03T07:13:37;47404.81;;;-144.02;58.03
29985;BME280;17387;42.690;23.328;2022-07-03T07:16:03;47384.50;;;-144.02;58.26
29985;BME280;17387;42.690;23.328;2022-07-03T07:18:28;47526.69;;;-144.02;58.01
29985;BME280;17387;42.690;23.328;2022-07-03T07:20:54;47388.56;;;-144.02;56.59
29985;BME280;17387;42.690;23.328;2022-07-03T07:23:19;47494.19;;;-144.02;56.82
29985;BME280;17387;42.690;23.328;2022-07-03T07:25:45;47347.94;;;-144.02;56.44
29985;BME280;17387;42.690;23.328;2022-07-03T07:28:10;47380.44;;;-144.02;55.33
29985;BME280;17387;42.690;23.328;2022-07-03T07:30:36;47380.44;;;-144.02;55.56
29985;BME280;17387;42.690;23.328;2022-07-03T07:33:02;47378.41;;;-144.02;54.67
29985;BME280;17387;42.690;23.328;2022-07-03T07:35:27;47360.13;;;-144.02;56.04
29985;BME280;17387;42.690;23.328;2022-07-03T07:37:52;47388.56;;;-144.02;55.93
29985;BME280;17387;42.690;23.328;2022-07-03T07:40:18;47368.25;;;-144.02;55.17
29985;BME280;17387;42.690;23.328;2022-07-03T07:42:43;47382.47;;;-144.02;54.95
29985;BME280;17387;42.690;23.328;2022-07-03T07:45:10;47345.91;;;-144.02;55.47
29985;BME280;17387;42.690;23.328;2022-07-03T07:47:36;47380.44;;;-144.02;54.50
29985;BME280;17387;42.690;23.328;2022-07-03T07:50:01;47317.47;;;-144.02;54.45
29985;BME280;17387;42.690;23.328;2022-07-03T07:52:27;47339.81;;;-144.02;54.72
29985;BME280;17387;42.690;23.328;2022-07-03T07:54:52;47362.16;;;-144.02;55.31
29985;BME280;17387;42.690;23.328;2022-07-03T07:57:18;47368.25;;;-144.02;55.34
29985;BME280;17387;42.690;23.328;2022-07-03T07:59:43;47372.31;;;-144.02;54.82
29985;BME280;17387;42.690;23.328;2022-07-03T08:02:08;47364.19;;;-144.02;54.52
29985;BME280;17387;42.690;23.328;2022-07-03T08:04:52;47352.00;;;-144.02;54.66
29985;BME280;17387;42.690;23.328;2022-07-03T08:07:36;47374.34;;;-144.02;54.52
29985;BME280;17387;42.690;23.328;2022-07-03T08:10:02;47341.84;;;-144.02;53.41
29985;BME280;17387;42.690;23.328;2022-07-03T08:12:28;47362.16;;;-144.02;54.24
29985;BME280;17387;42.690;23.328;2022-07-03T08:14:53;47374.34;;;-144.02;54.09
29985;BME280;17387;42.690;23.328;2022-07-03T08:17:19;47345.91;;;-144.02;53.59
29985;BME280;17387;42.690;23.328;2022-07-03T08:19:44;47349.97;;;-144.02;53.65
29985;BME280;17387;42.690;23.328;2022-07-03T08:22:09;47339.81;;;-144.02;52.53
29985;BME280;17387;42.690;23.328;2022-07-03T08:24:35;47299.19;;;-144.02;52.59
29985;BME280;17387;42.690;23.328;2022-07-03T08:27:03;47345.91;;;-144.02;51.94
29985;BME280;17387;42.690;23.328;2022-07-03T08:29:28;47331.69;;;-144.02;50.68
29985;BME280;17387;42.690;23.328;2022-07-03T08:31:54;47309.34;;;-144.02;50.40
29985;BME280;17387;42.690;23.328;2022-07-03T08:34:19;47343.88;;;-144.02;50.39
29985;BME280;17387;42.690;23.328;2022-07-03T08:36:45;47339.81;;;-144.02;50.73
29985;BME280;17387;42.690;23.328;2022-07-03T08:39:10;47349.97;;;-144.02;51.58
29985;BME280;17387;42.690;23.328;2022-07-03T08:41:40;47368.25;;;-144.02;49.56
29985;BME280;17387;42.690;23.328;2022-07-03T08:44:08;47356.06;;;-144.02;50.21
29985;BME280;17387;42.690;23.328;2022-07-03T08:46:34;47352.00;;;-144.02;48.68
29985;BME280;17387;42.690;23.328;2022-07-03T08:49:01;47343.88;;;-144.02;48.32
29985;BME280;17387;42.690;23.328;2022-07-03T08:51:27;47317.47;;;-144.02;48.96
29985;BME280;17387;42.690;23.328;2022-07-03T08:53:53;47331.69;;;-144.02;49.33
29985;BME280;17387;42.690;23.328;2022-07-03T08:56:22;47315.44;;;-144.02;48.77
29985;BME280;17387;42.690;23.328;2022-07-03T08:58:48;47325.59;;;-144.02;47.25
29985;BME280;17387;42.690;23.328;2022-07-03T09:01:16;47319.50;;;-144.02;46.81
29985;BME280;17387;42.690;23.328;2022-07-03T09:03:43;47319.50;;;-144.02;46.39
29985;BME280;17387;42.690;23.328;2022-07-03T09:06:08;47323.56;;;-144.02;47.06
29985;BME280;17387;42.690;23.328;2022-07-03T09:08:36;47311.38;;;-144.02;46.04
29985;BME280;17387;42.690;23.328;2022-07-03T09:11:03;47258.56;;;-144.02;45.04
29985;BME280;17387;42.690;23.328;2022-07-03T09:13:29;47331.69;;;-144.02;44.97
29985;BME280;17387;42.690;23.328;2022-07-03T09:15:55;47295.13;;;-144.02;44.61
29985;BME280;17387;42.690;23.328;2022-07-03T09:18:37;47471.84;;;-144.02;44.63
29985;BME280;17387;42.690;23.328;2022-07-03T09:21:04;47299.19;;;-144.02;44.60
29985;BME280;17387;42.690;23.328;2022-07-03T09:23:36;47319.50;;;-144.02;45.20
29985;BME280;17387;42.690;23.328;2022-07-03T09:26:03;47278.88;;;-144.02;43.77
29985;BME280;17387;42.690;23.328;2022-07-03T09:28:48;47278.88;;;-144.02;43.73
29985;BME280;17387;42.690;23.328;2022-07-03T09:31:17;47280.91;;;-144.02;43.14
29985;BME280;17387;42.690;23.328;2022-07-03T09:34:05;47315.44;;;-144.02;42.75
29985;BME280;17387;42.690;23.328;2022-07-03T09:36:43;47321.53;;;-144.02;43.74
29985;BME280;17387;42.690;23.328;2022-07-03T09:39:28;47307.31;;;-144.02;43.85
29985;BME280;17387;42.690;23.328;2022-07-03T09:42:07;47352.00;;;-144.02;41.78
29985;BME280;17387;42.690;23.328;2022-07-03T09:44:41;47274.81;;;-144.02;42.22
29985;BME280;17387;42.690;23.328;2022-07-03T10:00:24;47303.25;;;-144.02;41.45
29985;BME280;17387;42.690;23.328;2022-07-03T10:08:19;47282.94;;;-144.02;39.69
29985;BME280;17387;42.690;23.328;2022-07-03T10:10:47;47270.75;;;-144.02;39.39
29985;BME280;17387;42.690;23.328;2022-07-03T10:13:13;47311.38;;;-144.02;39.96
29985;BME280;17387;42.690;23.328;2022-07-03T10:15:41;47274.81;;;-144.02;38.67
29985;BME280;17387;42.690;23.328;2022-07-03T10:18:09;47305.28;;;-144.02;38.46
29985;BME280;17387;42.690;23.328;2022-07-03T10:20:37;47248.41;;;-144.02;38.06
29985;BME280;17387;42.690;23.328;2022-07-03T10:23:03;47299.19;;;-144.02;38.02
29985;BME280;17387;42.690;23.328;2022-07-03T10:25:30;47278.88;;;-144.02;37.35
29985;BME280;17387;42.690;23.328;2022-07-03T10:27:56;47293.09;;;-144.02;37.07
29985;BME280;17387;42.690;23.328;2022-07-03T10:30:23;47315.44;;;-144.02;36.42
29985;BME280;17387;42.690;23.328;2022-07-03T10:32:50;47238.28;;;-144.02;35.37
29985;BME280;17387;42.690;23.328;2022-07-03T10:35:22;47297.16;;;-144.02;34.18
29985;BME280;17387;42.690;23.328;2022-07-03T10:37:56;47287.00;;;-144.02;32.89
29985;BME280;17387;42.690;23.328;2022-07-03T10:40:48;47258.56;;;-144.02;32.03
29985;BME280;17387;42.690;23.328;2022-07-03T10:43:39;47254.50;;;-144.02;32.56
29985;BME280;17387;42.690;23.328;2022-07-03T10:46:25;47311.38;;;-144.02;31.83
29985;BME280;17387;42.690;23.328;2022-07-03T10:49:06;47266.69;;;-144.02;30.96
29985;BME280;17387;42.690;23.328;2022-07-03T10:51:59;47282.94;;;-144.02;32.11
29985;BME280;17387;42.690;23.328;2022-07-03T10:54:33;47258.56;;;-144.02;32.88
29985;BME280;17387;42.690;23.328;2022-07-03T11:02:33;47284.97;;;-144.02;31.37
29985;BME280;17387;42.690;23.328;2022-07-03T11:07:25;47262.63;;;-144.02;30.52
29985;BME280;17387;42.690;23.328;2022-07-03T11:20:55;47284.97;;;-144.02;31.56
29985;BME280;17387;42.690;23.328;2022-07-03T11:23:29;47272.78;;;-144.02;31.85
29985;BME280;17387;42.690;23.328;2022-07-03T11:38:42;47262.63;;;-144.02;32.15
29985;BME280;17387;42.690;23.328;2022-07-03T11:41:09;47254.50;;;-144.02;32.15
29985;BME280;17387;42.690;23.328;2022-07-03T11:43:35;47278.88;;;-144.02;31.81
29985;BME280;17387;42.690;23.328;2022-07-03T11:46:02;47242.31;;;-144.02;31.74
29985;BME280;17387;42.690;23.328;2022-07-03T11:48:29;47246.38;;;-144.02;31.40
29985;BME280;17387;42.690;23.328;2022-07-03T11:51:02;47345.91;;;-144.02;31.44
29985;BME280;17387;42.690;23.328;2022-07-03T11:53:33;47293.09;;;-144.02;31.20
29985;BME280;17387;42.690;23.328;2022-07-03T11:56:09;47232.16;;;-144.02;31.70
29985;BME280;17387;42.690;23.328;2022-07-03T11:58:45;47309.34;;;-144.02;31.66
29985;BME280;17387;42.690;23.328;2022-07-03T12:04:19;47222.03;;;-144.02;31.42
29985;BME280;17387;42.690;23.328;2022-07-03T12:06:49;47232.16;;;-144.02;30.46
29985;BME280;17387;42.690;23.328;2022-07-03T12:09:26;47177.34;;;-144.02;29.20
29985;BME280;17387;42.690;23.328;2022-07-03T12:11:54;47161.09;;;-144.02;27.86
29985;BME280;17387;42.690;23.328;2022-07-03T12:14:38;47185.47;;;-144.02;27.85
29985;BME280;17387;42.690;23.328;2022-07-03T12:17:05;47167.19;;;-144.02;26.95
29985;BME280;17387;42.690;23.328;2022-07-03T12:19:31;47126.56;;;-144.02;26.47
29985;BME280;17387;42.690;23.328;2022-07-03T12:21:56;47155.00;;;-144.02;25.90
29985;BME280;17387;42.690;23.328;2022-07-03T12:24:22;47197.66;;;-144.02;26.45
29985;BME280;17387;42.690;23.328;2022-07-03T12:26:48;47244.34;;;-144.02;28.32
29985;BME280;17387;42.690;23.328;2022-07-03T12:29:15;47165.16;;;-144.02;27.33
29985;BME280;17387;42.690;23.328;2022-07-03T12:31:45;47177.34;;;-144.02;27.68
29985;BME280;17387;42.690;23.328;2022-07-03T12:34:12;47157.03;;;-144.02;27.93
29985;BME280;17387;42.690;23.328;2022-07-03T12:36:38;47169.22;;;-144.02;26.81
29985;BME280;17387;42.690;23.328;2022-07-03T12:39:04;47242.31;;;-144.02;29.31
29985;BME280;17387;42.690;23.328;2022-07-03T12:41:29;47217.97;;;-144.02;30.76
29985;BME280;17387;42.690;23.328;2022-07-03T12:43:58;47266.69;;;-144.02;31.31
29985;BME280;17387;42.690;23.328;2022-07-03T12:46:32;47242.31;;;-144.02;30.14
29985;BME280;17387;42.690;23.328;2022-07-03T12:48:59;47262.63;;;-144.02;30.62
29985;BME280;17387;42.690;23.328;2022-07-03T12:54:11;47217.97;;;-144.02;28.03
29985;BME280;17387;42.690;23.328;2022-07-03T12:56:36;47217.97;;;-144.02;28.12
29985;BME280;17387;42.690;23.328;2022-07-03T12:59:02;47165.16;;;-144.02;27.59
29985;BME280;17387;42.690;23.328;2022-07-03T13:01:59;47179.38;;;-144.02;27.21
29985;BME280;17387;42.690;23.328;2022-07-03T13:04:36;47217.97;;;-144.02;27.99
29985;BME280;17387;42.690;23.328;2022-07-03T13:07:05;47234.22;;;-144.02;29.57
29985;BME280;17387;42.690;23.328;2022-07-03T13:09:31;47211.88;;;-144.02;29.83
29985;BME280;17387;42.690;23.328;2022-07-03T13:11:57;47207.81;;;-144.02;28.80
29985;BME280;17387;42.690;23.328;2022-07-03T13:14:23;47173.28;;;-144.02;27.61
29985;BME280;17387;42.690;23.328;2022-07-03T13:16:54;47256.53;;;-144.02;27.87
29985;BME280;17387;42.690;23.328;2022-07-03T13:19:25;47224.06;;;-144.02;30.06
29985;BME280;17387;42.690;23.328;2022-07-03T13:21:53;47169.22;;;-144.02;31.06
29985;BME280;17387;42.690;23.328;2022-07-03T13:24:18;47260.59;;;-144.02;32.23
29985;BME280;17387;42.690;23.328;2022-07-03T13:26:45;47274.81;;;-144.02;34.35
29985;BME280;17387;42.690;23.328;2022-07-03T13:29:11;47280.91;;;-144.02;35.75
29985;BME280;17387;42.690;23.328;2022-07-03T13:31:37;47248.41;;;-144.02;36.91
29985;BME280;17387;42.690;23.328;2022-07-03T13:34:02;47234.22;;;-144.02;35.35
29985;BME280;17387;42.690;23.328;2022-07-03T13:36:29;47270.75;;;-144.02;34.49
29985;BME280;17387;42.690;23.328;2022-07-03T13:38:56;47222.03;;;-144.02;34.03
29985;BME280;17387;42.690;23.328;2022-07-03T13:41:22;47258.56;;;-144.02;34.94
29985;BME280;17387;42.690;23.328;2022-07-03T13:43:48;47372.31;;;-144.02;35.60
29985;BME280;17387;42.690;23.328;2022-07-03T13:46:15;47252.47;;;-144.02;35.51
29985;BME280;17387;42.690;23.328;2022-07-03T13:48:41;47284.97;;;-144.02;35.71
29985;BME280;17387;42.690;23.328;2022-07-03T13:51:07;47268.72;;;-144.02;36.10
29985;BME280;17387;42.690;23.328;2022-07-03T13:53:33;47270.75;;;-144.02;35.54
29985;BME280;17387;42.690;23.328;2022-07-03T13:55:58;47262.63;;;-144.02;34.64
29985;BME280;17387;42.690;23.328;2022-07-03T13:58:25;47205.78;;;-144.02;33.52
29985;BME280;17387;42.690;23.328;2022-07-03T14:00:51;47242.31;;;-144.02;32.47
29985;BME280;17387;42.690;23.328;2022-07-03T14:03:16;47272.78;;;-144.02;32.85
29985;BME280;17387;42.690;23.328;2022-07-03T14:05:41;47242.31;;;-144.02;32.71
29985;BME280;17387;42.690;23.328;2022-07-03T14:08:07;47215.94;;;-144.02;32.64